Detall de PIREP

Printer-friendly versionPDF version

[2013/04/05 18:23:00]
Flight IATA:CT2103
Pilot Number:044
Company ICAO:CAT
Aircraft Type:AT72/F
PAX:41
Departing Airport: LEAM
Destination Airport: LEVC
Alternate Airport:LEAL
Online: VATSIM
Route:DOSEK G850 NARGO
Flight Level:F160
No Slew and time accel
No pause
Crash detect
Detect pilot in Cockpit between each 30 and 45 minutes
18:23 Zero fuel Weight: 39664 Lbs, Fuel Weight: 3205 Lbs
18:23 VATSIM:LEAM 051800Z 23007KT 9999 FEW015 SCT070 15/13 Q1006
18:23 VATSIM:LEVC 051800Z 13004KT 9999 FEW012 SCT025 BKN060 10/08 Q1008 NOSIG
18:23 VOICE CATALONIAN
18:25 Parking Brakes off
18:34 Take-off
18:34 Take off Weight: 42774 Lbs
18:34 Wind: 234º @ 007 Knots Heading: 250º
18:34 POS N36º 50´ 40´´ W002º 22´ 02´´
18:34 Flaps:1 at 134 Knots
18:34 Gear Up: 129 Knots
18:34 Flaps:0 at 148 Knots
18:48 TOC
18:48 Fuel Weight: 2632 Lb
18:49 Wind:245º@011 Knots Heading: 025º Ground Speed: 266 Knots Altitude 15764 ft
19:02 TOD
19:02 Fuel Weight: 2238 Lb
19:04 Wind:329º@005 Knots Heading: 026º Ground Speed: 268 Knots Altitude 14343 ft
19:19 Wind:346º@011 Knots Heading: 025º Ground Speed: 184 Knots Altitude 5088 ft
19:34 Wind:341º@015 Knots Heading: 177º Ground Speed: 164 Knots Altitude 3500 ft
19:36 Gear Down: 151 Knots
19:36 Flaps:1 at 146 Knots
19:41 Flaps:2 at 139 Knots
19:44 TouchDown:Rate -225 ft/min Speed: 105 Knots
19:44 VATSIM:LEVC 051930Z 21003KT 170V230 9999 FEW015 SCT025 10/08 Q1009 NOSIG
19:44 Land
19:44 Wind:249º@003 Knots
19:44 Heading: 295º
19:44 Flight Duration: 01:10
19:44 Landing Weight: 41341 Lbs
19:44 POS N39º 29´ 29´´ W000º 29´ 14´´
19:49 Parking brakes on
19:49 Block to Block Duration: 01:24
19:49 Final Fuel: 1644 Lbls
19:49 Spent Fuel: 1560 Lbls
19:49 Flight Length: 249 NM
19:49 TOD Land Length: 131 NM

Exportar CSV

Powered by Drupal - Modified by Danger4k